Terminal Aerodrome Forecast
Issued by NWS

Home | Current Version | Previous Version | Text Only | Print | Product List | Glossary On
Versions: 1 2 3 4 5 6 7 8 9 10 11 12 13 14 15 16 17 18 19 20
000
FTAK31 PAFA 232204 AAA
TAFAOM
TAF AMD
PAOM 232204Z 2322/2418 11018KT 1/2SM -SN FG VV006
     FM240600 29007KT P6SM VCSH SCT015 OVC035
     FM241600 23010KT 5SM -SN BR BKN012 OVC025=

USA.gov is the U.S. government's official web portal to all federal, state and local government web resources and services.